Time;durP1;ratioP1;P1;durP2;ratioP2;P2;SDS_P1;SDS_P2;PMS_P1;PMS_P2;Temp;Humidity;BMP_temperature;BMP_pressure;BME280_temperature;BME280_humidity;BME280_pressure;Samples;Min_cycle;Max_cycle;Signal;HPM_P1;HPM_P2
2021/10/27 00:01:50;;;;;;;36.08;21.15;;;;;;;0.16;63.09;102276.38;1787948;80;20939;-74
2021/10/27 00:04:17;;;;;;;33.67;20.62;;;;;;;0.12;63.26;102279.34;1788095;80;20899;-74
2021/10/27 00:06:44;;;;;;;41.63;21.65;;;;;;;0.10;63.41;102275.02;1788291;80;21138;-74
2021/10/27 00:09:11;;;;;;;40.40;21.33;;;;;;;0.06;63.62;102279.70;1787977;80;20888;-75
2021/10/27 00:11:38;;;;;;;41.23;21.37;;;;;;;0.02;63.66;102276.65;1788238;79;20907;-74
2021/10/27 00:14:05;;;;;;;42.70;20.82;;;;;;;-0.03;64.05;102278.75;1788143;79;20939;-74
2021/10/27 00:16:33;;;;;;;34.60;20.65;;;;;;;-0.04;64.25;102281.34;1787970;80;21330;-75
2021/10/27 00:18:59;;;;;;;39.92;21.57;;;;;;;-0.06;64.21;102274.00;1788346;80;21484;-76
2021/10/27 00:21:27;;;;;;;39.65;20.85;;;;;;;-0.09;64.26;102265.81;1787874;80;20927;-75
2021/10/27 00:23:54;;;;;;;39.27;20.80;;;;;;;-0.10;64.29;102264.07;1787943;79;20902;-75
2021/10/27 00:26:21;;;;;;;35.78;19.32;;;;;;;-0.12;64.45;102258.03;1788326;80;20904;-75
2021/10/27 00:28:47;;;;;;;40.80;21.20;;;;;;;-0.14;64.53;102256.29;1788030;79;20852;-75
2021/10/27 00:31:14;;;;;;;41.92;19.92;;;;;;;-0.18;64.80;102250.22;1787946;79;22069;-76
2021/10/27 00:33:43;;;;;;;37.78;19.05;;;;;;;-0.17;64.97;102260.14;1787879;80;20880;-75
2021/10/27 00:36:10;;;;;;;42.33;19.50;;;;;;;-0.19;64.97;102257.53;1788393;80;20919;-74
2021/10/27 00:38:37;;;;;;;34.83;20.45;;;;;;;-0.18;64.89;102260.97;1787889;80;20919;-75
2021/10/27 00:41:07;;;;;;;60.43;27.13;;;;;;;-0.19;64.85;102259.25;1788337;79;20967;-74
2021/10/27 00:43:36;;;;;;;50.67;24.45;;;;;;;-0.21;64.91;102256.64;1787879;80;21189;-75
2021/10/27 00:46:03;;;;;;;53.13;24.67;;;;;;;-0.22;64.95;102254.93;1788243;80;21015;-75
2021/10/27 00:48:30;;;;;;;60.95;27.73;;;;;;;-0.25;65.09;102254.45;1787994;80;21405;-75
2021/10/27 00:50:57;;;;;;;42.67;22.65;;;;;;;-0.26;65.21;102238.55;1787820;80;20959;-74
2021/10/27 00:53:23;;;;;;;37.65;20.35;;;;;;;-0.29;65.41;102248.84;1787912;80;20927;-74
2021/10/27 00:55:50;;;;;;;59.18;25.50;;;;;;;-0.28;65.65;102244.11;1787869;80;22050;-73
2021/10/27 00:58:17;;;;;;;62.23;27.37;;;;;;;-0.30;65.68;102247.09;1787814;79;20971;-76
2021/10/27 01:00:44;;;;;;;45.12;23.30;;;;;;;-0.30;65.63;102242.38;1788137;80;21564;-76
2021/10/27 01:03:11;;;;;;;49.00;23.22;;;;;;;-0.32;65.74;102241.48;1787818;80;20971;-75
2021/10/27 01:05:38;;;;;;;48.90;23.70;;;;;;;-0.33;66.10;102238.48;1788361;80;21334;-77
2021/10/27 01:08:05;;;;;;;44.20;23.55;;;;;;;-0.34;66.17;102236.73;1787967;80;21503;-76
2021/10/27 01:10:31;;;;;;;44.67;21.05;;;;;;;-0.35;66.20;102237.60;1788215;79;20892;-76
2021/10/27 01:12:58;;;;;;;46.65;22.87;;;;;;;-0.36;66.28;102235.85;1787823;80;21437;-77
2021/10/27 01:15:25;;;;;;;45.05;21.10;;;;;;;-0.38;66.23;102235.83;1788234;79;20936;-76
2021/10/27 01:17:53;;;;;;;40.15;21.15;;;;;;;-0.39;66.17;102224.23;1787931;80;21436;-75
2021/10/27 01:20:20;;;;;;;49.53;22.95;;;;;;;-0.42;66.23;102228.94;1788298;80;21592;-76
2021/10/27 01:22:47;;;;;;;41.53;19.82;;;;;;;-0.40;66.41;102234.08;1785468;80;20963;-73
2021/10/27 01:25:13;;;;;;;39.90;20.90;;;;;;;-0.42;66.19;102236.66;1785147;80;20979;-76
2021/10/27 01:27:44;;;;;;;41.28;23.57;;;;;;;-0.44;66.07;102225.47;1784893;80;21035;-75
2021/10/27 01:30:13;;;;;;;46.88;23.15;;;;;;;-0.46;66.19;102225.88;1785194;79;20916;-75
2021/10/27 01:32:40;;;;;;;51.18;28.10;;;;;;;-0.47;66.19;102227.59;1784834;80;21137;-75
2021/10/27 01:35:08;;;;;;;54.73;23.60;;;;;;;-0.48;66.24;102223.27;1785197;80;21485;-77
2021/10/27 01:37:35;;;;;;;47.80;25.35;;;;;;;-0.48;66.48;102227.56;1785245;79;20896;-75
2021/10/27 01:40:05;;;;;;;48.35;24.47;;;;;;;-0.49;66.76;102223.23;1785110;80;20892;-74
2021/10/27 01:42:32;;;;;;;48.15;24.27;;;;;;;-0.50;67.04;102226.25;1783865;80;20880;-75
2021/10/27 01:44:59;;;;;;;38.83;21.73;;;;;;;-0.49;66.92;102221.55;1785065;79;21006;-75
2021/10/27 01:47:26;;;;;;;52.35;24.72;;;;;;;-0.51;67.04;102218.09;1784838;79;20963;-74
2021/10/27 01:49:53;;;;;;;51.58;25.00;;;;;;;-0.51;66.82;102215.91;1785111;79;20884;-75
2021/10/27 01:52:20;;;;;;;50.70;24.55;;;;;;;-0.55;66.76;102215.03;1784861;80;21038;-75
2021/10/27 01:54:47;;;;;;;54.95;27.32;;;;;;;-0.55;66.66;102213.75;1784810;80;20896;-75
2021/10/27 01:57:14;;;;;;;51.23;26.23;;;;;;;-0.56;66.76;102214.58;1784816;79;21483;-76
2021/10/27 01:59:42;;;;;;;55.92;26.05;;;;;;;-0.57;66.99;102213.29;1784804;80;20927;-76
2021/10/27 02:02:10;;;;;;;56.98;29.15;;;;;;;-0.57;67.29;102214.15;1784528;80;20853;-76
2021/10/27 02:04:38;;;;;;;54.42;26.35;;;;;;;-0.59;67.44;102215.84;1784775;80;20951;-76
2021/10/27 02:07:05;;;;;;;54.42;27.80;;;;;;;-0.59;67.44;102214.55;1785042;80;20880;-76
2021/10/27 02:09:32;;;;;;;56.83;26.55;;;;;;;-0.60;67.94;102212.84;1785190;80;21147;-75
2021/10/27 02:11:59;;;;;;;54.73;28.07;;;;;;;-0.61;67.85;102207.23;1785170;80;20876;-74
2021/10/27 02:14:28;;;;;;;66.50;30.90;;;;;;;-0.61;68.12;102205.94;1785108;80;20931;-76
2021/10/27 02:16:55;;;;;;;57.55;31.57;;;;;;;-0.60;68.23;102203.82;1785293;79;20924;-75
2021/10/27 02:19:22;;;;;;;67.45;27.60;;;;;;;-0.59;68.29;102209.40;1785028;80;20833;-75
2021/10/27 02:21:49;;;;;;;76.82;29.87;;;;;;;-0.58;68.44;102208.54;1785370;79;21519;-74
2021/10/27 02:24:15;;;;;;;70.35;34.63;;;;;;;-0.58;68.09;102205.96;1787934;80;20880;-74
2021/10/27 02:26:42;;;;;;;69.17;32.53;;;;;;;-0.59;67.96;102214.98;1788158;79;21018;-74
2021/10/27 02:29:10;;;;;;;69.47;30.85;;;;;;;-0.57;67.97;102219.73;1788455;79;22266;-75
2021/10/27 02:31:36;;;;;;;62.45;28.87;;;;;;;-0.59;68.17;102217.13;1788380;80;20896;-74
2021/10/27 02:34:03;;;;;;;73.87;34.83;;;;;;;-0.58;68.33;102214.13;1788092;80;21768;-74
2021/10/27 02:36:30;;;;;;;54.18;31.12;;;;;;;-0.59;68.46;102218.41;1788083;80;20892;-74
2021/10/27 02:38:57;;;;;;;61.77;30.82;;;;;;;-0.60;68.71;102223.55;1788145;80;21398;-75
2021/10/27 02:41:24;;;;;;;60.67;31.23;;;;;;;-0.61;68.76;102214.09;1787985;80;20947;-75
2021/10/27 02:43:51;;;;;;;56.88;29.60;;;;;;;-0.60;68.92;102217.10;1788360;80;20899;-74
2021/10/27 02:46:18;;;;;;;63.10;32.85;;;;;;;-0.59;69.13;102211.12;1788014;80;22145;-73
2021/10/27 02:48:45;;;;;;;65.57;31.95;;;;;;;-0.59;69.32;102213.27;1788309;80;20857;-74
2021/10/27 02:51:12;;;;;;;67.03;31.50;;;;;;;-0.56;69.48;102220.16;1787951;80;20979;-74
2021/10/27 02:53:39;;;;;;;68.20;34.65;;;;;;;-0.56;69.50;102218.44;1788492;80;21378;-75
2021/10/27 02:56:06;;;;;;;62.00;30.88;;;;;;;-0.54;69.56;102212.88;1788289;80;20962;-75
2021/10/27 02:58:33;;;;;;;64.10;34.45;;;;;;;-0.54;69.51;102211.59;1788201;80;21103;-75
2021/10/27 03:01:01;;;;;;;66.45;33.23;;;;;;;-0.52;69.48;102215.05;1788101;79;21473;-75
2021/10/27 03:03:28;;;;;;;74.07;32.40;;;;;;;-0.53;69.53;102213.77;1788247;79;20876;-76
2021/10/27 03:05:55;;;;;;;61.63;32.48;;;;;;;-0.54;69.50;102208.16;1787984;79;20951;-76
2021/10/27 03:08:23;;;;;;;65.97;32.88;;;;;;;-0.57;69.44;102214.15;1788155;80;20908;-74
2021/10/27 03:10:49;;;;;;;85.85;35.50;;;;;;;-0.60;69.55;102206.80;1788030;79;21118;-76
2021/10/27 03:13:16;;;;;;;69.27;33.30;;;;;;;-0.61;69.63;102202.08;1788386;80;20970;-74
2021/10/27 03:15:43;;;;;;;83.87;32.00;;;;;;;-0.62;69.59;102200.36;1788122;80;21023;-74
2021/10/27 03:18:10;;;;;;;71.72;31.05;;;;;;;-0.62;69.41;102201.65;1787923;80;20900;-74
2021/10/27 03:20:37;;;;;;;64.10;32.58;;;;;;;-0.64;69.36;102198.19;1787933;80;21429;-73
2021/10/27 03:23:04;;;;;;;70.15;32.28;;;;;;;-0.66;69.54;102196.02;1786271;80;21134;-75
2021/10/27 03:25:32;;;;;;;71.55;33.23;;;;;;;-0.67;69.49;102200.30;1784853;80;21433;-75
2021/10/27 03:27:59;;;;;;;70.00;31.33;;;;;;;-0.70;69.41;102189.95;1785285;80;20911;-75
2021/10/27 03:30:26;;;;;;;68.15;36.88;;;;;;;-0.69;69.18;102187.83;1784961;80;20939;-75
2021/10/27 03:32:54;;;;;;;82.27;38.05;;;;;;;-0.71;68.99;102183.48;1785276;79;20995;-75
2021/10/27 03:35:21;;;;;;;75.60;39.55;;;;;;;-0.69;68.77;102189.52;1785028;80;21151;-75
2021/10/27 03:37:49;;;;;;;71.25;37.63;;;;;;;-0.72;68.58;102194.64;1784866;80;20923;-76
2021/10/27 03:40:16;;;;;;;82.15;41.02;;;;;;;-0.71;68.58;102190.81;1785184;80;20972;-76
2021/10/27 03:42:44;;;;;;;72.37;39.75;;;;;;;-0.74;68.50;102186.89;1785147;80;20868;-77
2021/10/27 03:45:11;;;;;;;63.10;34.08;;;;;;;-0.74;68.40;102182.17;1785063;80;20919;-75
2021/10/27 03:47:37;;;;;;;75.10;36.35;;;;;;;-0.78;68.47;102181.69;1784923;80;21807;-74
2021/10/27 03:50:06;;;;;;;80.83;35.85;;;;;;;-0.80;68.73;102182.08;1784820;80;20971;-77
2021/10/27 03:52:33;;;;;;;89.87;40.67;;;;;;;-0.80;68.92;102184.27;1785042;79;21473;-75
2021/10/27 03:55:00;;;;;;;85.65;39.95;;;;;;;-0.84;68.88;102187.21;1784851;80;20939;-75
2021/10/27 03:57:27;;;;;;;70.20;33.75;;;;;;;-0.84;68.81;102186.35;1784974;80;21444;-76
2021/10/27 03:59:55;;;;;;;73.02;37.78;;;;;;;-0.88;68.92;102182.01;1785055;80;20932;-76
2021/10/27 04:02:22;;;;;;;62.62;31.05;;;;;;;-0.89;69.04;102190.56;1784849;80;20967;-76
2021/10/27 04:04:49;;;;;;;66.50;32.03;;;;;;;-0.90;68.88;102192.27;1785301;79;21382;-74
2021/10/27 04:07:16;;;;;;;60.80;31.85;;;;;;;-0.92;68.85;102191.39;1784926;79;20975;-76
2021/10/27 04:09:44;;;;;;;65.65;31.23;;;;;;;-0.91;68.84;102195.71;1784897;80;21552;-75
2021/10/27 04:12:11;;;;;;;70.62;36.08;;;;;;;-0.94;68.92;102193.08;1785035;80;21158;-76
2021/10/27 04:14:38;;;;;;;79.30;45.73;;;;;;;-0.91;68.97;102200.86;1785066;80;20913;-76
2021/10/27 04:17:06;;;;;;;84.03;51.45;;;;;;;-0.92;69.13;102196.54;1785035;80;20904;-75
2021/10/27 04:19:34;;;;;;;99.40;53.70;;;;;;;-0.90;69.16;102196.56;1785007;79;20921;-89
2021/10/27 04:22:02;;;;;;;89.60;42.75;;;;;;;-0.92;69.30;102192.67;1785560;80;20963;-88
2021/10/27 04:24:29;;;;;;;83.35;45.85;;;;;;;-0.90;69.40;102195.28;1785903;79;21126;-90
2021/10/27 04:26:56;;;;;;;69.65;37.63;;;;;;;-0.90;69.28;102184.55;1785918;80;20931;-88
2021/10/27 04:29:23;;;;;;;81.02;40.52;;;;;;;-0.92;69.45;102191.39;1786077;79;21046;-88
2021/10/27 04:31:51;;;;;;;71.47;40.52;;;;;;;-0.92;69.59;102190.10;1785776;80;21446;-91
2021/10/27 04:34:19;;;;;;;73.47;39.13;;;;;;;-0.92;69.59;102191.82;1785246;80;20896;-90
2021/10/27 04:36:46;;;;;;;73.00;38.50;;;;;;;-0.91;69.64;102189.67;1786162;80;21150;-92
2021/10/27 04:39:35;;;;;;;75.10;35.78;;;;;;;-0.91;69.71;102185.41;1782119;76;21085;-94
2021/10/27 04:42:05;;;;;;;74.25;34.85;;;;;;;-0.88;69.69;102188.02;1754827;82;21127;-93
2021/10/27 04:44:34;;;;;;;69.32;32.25;;;;;;;-0.87;69.46;102192.34;1755637;81;20852;-95
2021/10/27 04:47:03;;;;;;;66.77;33.50;;;;;;;-0.89;69.44;102197.00;1725830;82;20935;-88
2021/10/27 04:49:32;;;;;;;65.75;31.73;;;;;;;-0.89;69.58;102197.89;1753989;82;21151;-90
2021/10/27 04:51:59;;;;;;;107.40;34.85;;;;;;;-0.89;69.71;102204.33;1725336;81;20860;-88
2021/10/27 04:54:25;;;;;;;70.72;33.58;;;;;;;-0.87;69.94;102200.45;1753759;81;20959;-82
2021/10/27 04:56:52;;;;;;;84.83;38.17;;;;;;;-0.84;70.00;102201.38;1753017;82;20955;-78
2021/10/27 04:59:19;;;;;;;90.60;38.02;;;;;;;-0.80;70.05;102203.98;1754122;82;20979;-85
2021/10/27 05:01:46;;;;;;;102.35;41.42;;;;;;;-0.77;69.95;102193.30;1753908;82;21925;-85
2021/10/27 05:04:15;;;;;;;53.87;23.25;;;;;;;-0.73;69.99;102198.94;1753257;82;21385;-82
2021/10/27 05:06:42;;;;;;;77.67;35.25;;;;;;;-0.66;69.98;102198.59;1752985;81;20884;-88
2021/10/27 05:09:09;;;;;;;69.90;32.85;;;;;;;-0.60;69.95;102199.95;1753343;82;20959;-86
2021/10/27 05:11:36;;;;;;;78.22;32.28;;;;;;;-0.54;69.89;102191.41;1753555;82;20931;-87
2021/10/27 05:14:03;;;;;;;63.33;26.90;;;;;;;-0.47;69.75;102191.91;1726279;81;21173;-87
2021/10/27 05:16:31;;;;;;;67.22;27.82;;;;;;;-0.41;69.66;102191.99;1753308;82;21333;-87
2021/10/27 05:18:58;;;;;;;53.65;23.95;;;;;;;-0.34;69.49;102198.93;1752967;81;20943;-90
2021/10/27 05:21:25;;;;;;;57.00;23.52;;;;;;;-0.27;69.51;102202.04;1753186;82;21081;-87
2021/10/27 05:23:55;;;;;;;87.67;29.42;;;;;;;-0.11;69.59;102203.05;1753892;81;20923;-89
2021/10/27 05:26:23;;;;;;;58.52;24.18;;;;;;;0.07;69.37;102202.76;1753216;81;21125;-87
2021/10/27 05:28:50;;;;;;;49.63;24.02;;;;;;;0.25;69.10;102204.23;1753840;81;20982;-85
2021/10/27 05:31:17;;;;;;;84.45;29.52;;;;;;;0.46;69.01;102200.08;1753392;82;20947;-86
2021/10/27 05:33:44;;;;;;;76.28;25.50;;;;;;;0.67;68.46;102202.82;1754082;81;20927;-87
2021/10/27 05:36:12;;;;;;;61.68;24.47;;;;;;;0.83;67.95;102207.22;1753571;81;21391;-89
2021/10/27 05:38:39;;;;;;;54.93;23.87;;;;;;;1.04;67.62;102203.02;1753548;82;21363;-88
2021/10/27 05:41:07;;;;;;;46.33;20.95;;;;;;;1.28;67.29;102210.45;1743451;82;20922;-89
2021/10/27 05:43:35;;;;;;;57.67;24.47;;;;;;;1.54;66.73;102209.27;1734392;82;20987;-93
2021/10/27 05:46:02;;;;;;;50.73;24.07;;;;;;;1.89;66.37;102215.82;1734814;82;20938;-92
2021/10/27 05:48:38;;;;;;;52.30;24.02;;;;;;;2.53;65.90;102223.17;1735810;82;20978;-91
2021/10/27 05:56:21;;;;;;;51.73;24.50;;;;;;;5.29;60.43;102205.81;1735182;82;21001;-88
2021/10/27 05:58:49;;;;;;;41.00;21.87;;;;;;;6.29;57.46;102208.72;1734303;82;20946;-90
2021/10/27 06:01:17;;;;;;;41.98;23.95;;;;;;;7.12;55.33;102207.23;1734679;82;20950;-92
2021/10/27 06:03:44;;;;;;;52.88;23.20;;;;;;;7.93;53.27;102209.37;1735106;82;21228;-92
2021/10/27 06:06:12;;;;;;;44.00;24.12;;;;;;;8.69;51.16;102209.70;1735275;82;20879;-91
2021/10/27 06:08:40;;;;;;;54.50;26.68;;;;;;;9.40;49.60;102209.03;1735444;82;20882;-87
2021/10/27 06:11:10;;;;;;;50.48;24.43;;;;;;;9.91;47.88;102209.20;1734628;82;20942;-89
2021/10/27 06:13:44;;;;;;;38.80;21.17;;;;;;;9.99;46.75;102211.59;1734797;82;20929;-88
2021/10/27 06:16:08;;;;;;;35.00;18.92;;;;;;;9.76;46.20;102209.70;1734782;82;21340;-90
2021/10/27 06:18:35;;;;;;;37.17;19.82;;;;;;;9.41;46.32;102206.38;1735303;82;21632;-91
2021/10/27 06:21:02;;;;;;;35.50;17.12;;;;;;;9.02;46.54;102196.61;1734928;82;20863;-87
2021/10/27 06:23:32;;;;;;;36.10;16.35;;;;;;;8.57;46.76;102196.50;1734478;82;21344;-90
2021/10/27 06:25:59;;;;;;;32.40;14.65;;;;;;;8.06;47.51;102191.66;1735167;82;20977;-89
2021/10/27 06:28:33;;;;;;;32.15;16.05;;;;;;;7.65;48.31;102193.05;1734495;82;21140;-84
2021/10/27 06:31:07;;;;;;;38.73;20.17;;;;;;;7.27;49.03;102200.41;1734272;82;20973;-84
2021/10/27 06:33:47;;;;;;;29.05;15.78;;;;;;;6.92;49.86;102191.52;1734202;82;20934;-89
2021/10/27 06:36:11;;;;;;;36.98;18.10;;;;;;;6.63;50.66;102193.38;1732583;82;20942;-86
2021/10/27 06:46:38;;;;;;;35.15;17.40;;;;;;;5.84;52.99;102197.67;1755667;81;20899;-89
2021/10/27 06:49:06;;;;;;;40.60;17.02;;;;;;;5.74;53.47;102196.10;1755413;82;20979;-88
2021/10/27 06:51:33;;;;;;;33.65;18.87;;;;;;;5.64;53.85;102189.30;1754756;82;21449;-86
2021/10/27 06:54:01;;;;;;;43.92;19.70;;;;;;;5.55;54.19;102191.58;1755120;82;21140;-88
2021/10/27 06:56:28;;;;;;;38.20;21.35;;;;;;;5.49;54.59;102181.25;1755452;81;20974;-91
2021/10/27 07:02:08;;;;;;;38.63;17.50;;;;;;;5.46;55.17;102176.10;1756507;80;20861;-87
2021/10/27 07:04:34;;;;;;;37.58;18.17;;;;;;;5.45;55.43;102171.34;1751046;82;21300;-85
2021/10/27 07:06:59;;;;;;;42.08;19.92;;;;;;;5.47;55.69;102164.38;1752465;81;21134;-85
2021/10/27 07:15:05;;;;;;;37.30;17.02;;;;;;;5.55;56.50;102157.75;1754219;82;20978;-87
2021/10/27 07:17:31;;;;;;;48.33;19.23;;;;;;;5.61;56.61;102161.12;1753343;81;20887;-76
2021/10/27 07:20:05;;;;;;;41.05;18.92;;;;;;;5.67;56.65;102161.49;1752897;81;21148;-79
2021/10/27 07:22:33;;;;;;;39.35;16.57;;;;;;;5.71;56.70;102148.83;1753021;81;20896;-76
2021/10/27 07:25:00;;;;;;;38.80;16.60;;;;;;;5.76;56.77;102147.48;1752882;82;20935;-79
2021/10/27 07:27:28;;;;;;;34.80;19.73;;;;;;;5.80;56.76;102148.72;1753272;81;20936;-78
2021/10/27 07:29:55;;;;;;;26.93;14.23;;;;;;;5.84;56.76;102140.84;1752958;82;21022;-78
2021/10/27 07:32:22;;;;;;;25.48;13.10;;;;;;;5.90;56.88;102143.36;1753124;81;21121;-78
2021/10/27 07:34:55;;;;;;;25.08;11.88;;;;;;;5.95;57.12;102138.52;1752937;82;20860;-78
2021/10/27 07:42:35;;;;;;;28.10;13.00;;;;;;;6.12;57.53;102138.24;1752647;81;20891;-79
2021/10/27 07:45:05;;;;;;;24.70;11.65;;;;;;;6.18;57.58;102138.15;1751702;82;21159;-78
2021/10/27 07:47:33;;;;;;;26.42;13.25;;;;;;;6.26;57.84;102139.30;1752893;81;20844;-78
2021/10/27 07:50:00;;;;;;;21.25;10.80;;;;;;;6.33;57.85;102127.02;1752822;81;20931;-80
2021/10/27 07:52:27;;;;;;;22.27;10.32;;;;;;;6.40;57.86;102120.39;1753136;81;21077;-78
2021/10/27 07:54:55;;;;;;;29.92;11.50;;;;;;;6.48;57.94;102112.41;1752908;81;21070;-77
2021/10/27 07:57:22;;;;;;;22.65;11.22;;;;;;;6.56;57.84;102109.68;1752719;81;21161;-77
2021/10/27 07:59:51;;;;;;;22.27;11.40;;;;;;;6.64;57.67;102111.22;1752751;82;20935;-76
2021/10/27 08:02:18;;;;;;;30.23;11.48;;;;;;;6.72;57.56;102109.78;1753104;81;21461;-77
2021/10/27 08:04:45;;;;;;;26.48;11.05;;;;;;;6.80;57.35;102108.31;1723758;82;20947;-77
2021/10/27 08:07:14;;;;;;;18.42;10.48;;;;;;;6.87;57.22;102109.92;1752779;82;20864;-77
2021/10/27 08:09:42;;;;;;;18.32;9.58;;;;;;;6.95;57.22;102100.17;1752828;81;22032;-78
2021/10/27 08:12:11;;;;;;;16.85;10.20;;;;;;;7.05;57.17;102104.77;1752671;81;20924;-77
2021/10/27 08:14:39;;;;;;;23.87;11.63;;;;;;;7.14;57.18;102099.80;1752756;81;21018;-76
2021/10/27 08:17:06;;;;;;;17.00;8.95;;;;;;;7.26;57.10;102098.21;1752977;81;20974;-76
2021/10/27 08:19:34;;;;;;;16.30;8.83;;;;;;;7.42;56.83;102089.58;1753035;81;21361;-78
2021/10/27 08:22:05;;;;;;;15.43;8.53;;;;;;;7.80;56.23;102089.11;1753183;81;21770;-80
2021/10/27 08:24:30;;;;;;;17.73;10.20;;;;;;;8.50;55.41;102081.22;1753070;81;20955;-75
2021/10/27 08:27:09;;;;;;;20.52;11.10;;;;;;;9.49;53.39;102079.14;1752990;82;20900;-79
2021/10/27 08:29:28;;;;;;;19.00;9.58;;;;;;;10.53;50.81;102082.62;1748463;82;20974;-78
2021/10/27 08:32:01;;;;;;;18.25;9.40;;;;;;;11.57;48.72;102075.14;1752632;81;21483;-78
2021/10/27 08:34:38;;;;;;;13.40;7.47;;;;;;;12.66;46.78;102066.53;1752972;82;22015;-78
2021/10/27 08:37:03;;;;;;;13.62;6.97;;;;;;;13.61;43.36;102067.31;1752498;82;20888;-78
2021/10/27 08:39:30;;;;;;;12.18;6.58;;;;;;;14.33;41.62;102060.61;1752829;82;20944;-79
2021/10/27 08:42:00;;;;;;;8.23;5.17;;;;;;;14.93;40.52;102056.94;1754167;81;20951;-77
2021/10/27 08:44:27;;;;;;;6.45;4.60;;;;;;;15.58;39.21;102059.42;1756084;81;21594;-78
2021/10/27 08:46:54;;;;;;;8.98;4.80;;;;;;;16.61;36.50;102065.64;1756026;81;21091;-78
2021/10/27 08:49:25;;;;;;;9.83;5.78;;;;;;;16.61;36.50;102065.64;1755884;81;20844;-75
2021/10/27 08:51:49;;;;;;;10.43;9.25;;;;;;;17.11;36.45;102070.42;1730545;81;20923;-73
2021/10/27 08:54:17;;;;;;;9.83;6.33;;;;;;;17.63;35.32;102075.92;1756278;81;21026;-73
2021/10/27 08:56:45;;;;;;;11.50;5.15;;;;;;;18.13;34.59;102066.38;1755866;81;21421;-76
2021/10/27 08:59:38;;;;;;;11.30;5.95;;;;;;;18.57;33.87;102053.97;1756086;81;21166;-75
2021/10/27 09:05:16;;;;;;;7.72;4.72;;;;;;;19.38;31.63;102055.20;1711474;83;21475;-74
2021/10/27 09:44:53;;;;;;;10.23;6.10;;;;;;;22.06;26.43;102005.32;1754928;81;21171;-73
2021/10/27 09:47:48;;;;;;;9.85;6.40;;;;;;;22.12;26.15;102000.78;1715603;82;20948;-77
2021/10/27 09:56:08;;;;;;;10.95;5.17;;;;;;;22.68;25.39;101998.11;1754698;81;20892;-75
2021/10/27 10:04:14;;;;;;;7.62;4.90;;;;;;;23.35;24.57;101970.22;1730070;81;20928;-76
2021/10/27 10:06:44;;;;;;;9.05;5.58;;;;;;;23.44;24.47;101964.01;1754208;81;21557;-73
2021/10/27 10:09:12;;;;;;;9.33;6.03;;;;;;;23.29;23.50;101957.41;1754777;81;20955;-71
2021/10/27 10:11:40;;;;;;;7.60;6.10;;;;;;;23.06;23.76;101953.69;1755217;81;21137;-76
2021/10/27 10:14:12;;;;;;;11.50;6.15;;;;;;;22.97;24.06;101952.67;1754688;81;20868;-76
2021/10/27 10:16:50;;;;;;;7.35;5.25;;;;;;;23.07;24.10;101945.16;1754741;81;20987;-74
2021/10/27 10:19:21;;;;;;;8.75;5.17;;;;;;;23.13;23.75;101942.77;1754703;81;20923;-76
2021/10/27 10:21:51;;;;;;;7.78;5.45;;;;;;;23.21;23.71;101931.36;1754151;81;20951;-74
2021/10/27 10:24:25;;;;;;;7.72;5.70;;;;;;;23.32;23.75;101928.53;1754784;81;21139;-75
2021/10/27 10:26:56;;;;;;;8.53;4.83;;;;;;;23.36;23.34;101931.23;1754616;81;20993;-74
2021/10/27 10:30:00;;;;;;;7.25;4.85;;;;;;;23.11;23.43;101929.17;1754753;81;20900;-74
2021/10/27 10:32:34;;;;;;;8.20;4.42;;;;;;;22.97;23.88;101917.05;1754153;81;20912;-76
2021/10/27 10:35:24;;;;;;;8.13;4.50;;;;;;;22.97;23.53;101910.36;1754952;81;21283;-75
2021/10/27 10:38:06;;;;;;;8.73;5.97;;;;;;;22.78;23.64;101913.03;1750895;81;21164;-76
2021/10/27 10:43:37;;;;;;;14.30;9.33;;;;;;;22.59;23.83;101909.83;1716962;83;21019;-75
2021/10/27 10:46:01;;;;;;;8.58;4.55;;;;;;;22.40;23.84;101919.52;1780970;80;21442;-76
2021/10/27 10:57:20;;;;;;;13.28;5.50;;;;;;;20.43;25.83;101895.34;1783722;80;20872;-74
2021/10/27 11:00:13;;;;;;;;;;;;;;;19.92;26.17;101895.45;1781760;80;20904;-76
2021/10/27 11:41:11;;;;;;;8.70;4.53;;;;;;;15.47;33.49;101855.17;1739134;82;20952;-85
2021/10/27 11:43:45;;;;;;;10.82;4.35;;;;;;;15.46;33.24;101853.94;1774577;80;21015;-87
2021/10/27 11:51:12;;;;;;;7.25;3.65;;;;;;;15.46;32.33;101849.48;1775836;80;21586;-81
2021/10/27 11:53:49;;;;;;;11.05;3.83;;;;;;;15.49;31.68;101835.23;1775929;80;20909;-84
2021/10/27 11:56:21;;;;;;;5.80;3.08;;;;;;;15.49;31.68;101835.23;1739304;82;20877;-84
2021/10/27 11:58:52;;;;;;;4.58;2.90;;;;;;;15.52;31.01;101839.03;1776569;80;21971;-86
2021/10/27 12:01:40;;;;;;;4.25;3.00;;;;;;;15.49;30.82;101837.39;1755120;80;20900;-85
2021/10/27 12:04:05;;;;;;;2.80;2.33;;;;;;;15.49;30.29;101841.36;1738671;82;28047;-85
2021/10/27 12:06:39;;;;;;;7.42;3.27;;;;;;;15.38;30.71;101833.72;1776434;80;20901;-89
2021/10/27 12:09:25;;;;;;;7.42;3.17;;;;;;;15.38;30.71;101833.72;1776110;80;20845;-88
2021/10/27 12:12:03;;;;;;;6.72;3.42;;;;;;;15.26;31.17;101822.95;1738862;82;21325;-81
2021/10/27 12:19:25;;;;;;;7.12;4.10;;;;;;;15.26;31.74;101818.98;1775565;80;20944;-78
2021/10/27 12:22:02;;;;;;;9.93;4.30;;;;;;;15.27;31.89;101819.38;1775794;80;20896;-76
2021/10/27 12:24:34;;;;;;;11.65;5.15;;;;;;;15.25;31.63;101818.62;1775379;80;21136;-75
2021/10/27 12:27:07;;;;;;;10.40;4.97;;;;;;;15.22;31.67;101814.81;1775412;80;20885;-75
2021/10/27 12:29:37;;;;;;;9.95;4.80;;;;;;;15.16;31.69;101812.53;1775352;80;20860;-79
2021/10/27 12:32:13;;;;;;;7.87;4.03;;;;;;;15.10;32.20;101814.25;1737633;82;20968;-75
2021/10/27 12:34:56;;;;;;;6.95;4.55;;;;;;;15.10;32.20;101814.25;1775494;80;20916;-78
2021/10/27 12:37:40;;;;;;;8.50;4.58;;;;;;;14.96;32.36;101806.28;1775147;80;21558;-79
2021/10/27 12:42:47;;;;;;;9.18;5.25;;;;;;;14.71;33.02;101809.05;1775268;80;21520;-76
2021/10/27 12:45:14;;;;;;;11.33;5.97;;;;;;;14.60;33.08;101807.50;1775439;80;21342;-76
2021/10/27 12:47:41;;;;;;;8.70;6.03;;;;;;;14.47;33.27;101798.95;1775265;80;20904;-77
2021/10/27 12:50:15;;;;;;;7.65;4.92;;;;;;;14.31;33.63;101804.71;1775269;80;21130;-76
2021/10/27 12:52:54;;;;;;;28.02;16.27;;;;;;;14.17;33.92;101801.54;1738236;82;20889;-76
2021/10/27 12:55:39;;;;;;;23.20;10.80;;;;;;;14.04;34.10;101799.20;1775372;80;20869;-76
2021/10/27 12:58:15;;;;;;;;;;;;;;;13.94;34.25;101790.09;1777853;80;21386;-75
2021/10/27 13:03:41;;;;;;;14.60;7.65;;;;;;;13.64;34.74;101790.37;1775171;80;21134;-75
2021/10/27 13:06:05;;;;;;;20.35;9.78;;;;;;;13.52;35.36;101791.05;1772111;80;21496;-75
2021/10/27 13:11:22;;;;;;;11.50;6.17;;;;;;;13.31;36.71;101793.49;1726307;83;20230;-81
2021/10/27 13:29:50;;;;;;;9.18;5.55;;;;;;;12.46;38.33;101800.38;1775849;80;22315;-77
2021/10/27 13:32:16;;;;;;;9.40;5.47;;;;;;;12.36;38.61;101791.22;1774566;80;20888;-78
2021/10/27 13:34:40;;;;;;;13.93;6.95;;;;;;;12.26;39.16;101781.62;1775021;80;20936;-74
2021/10/27 13:37:07;;;;;;;11.83;7.30;;;;;;;12.12;39.37;101782.29;1775432;80;21397;-78
2021/10/27 13:39:36;;;;;;;11.80;6.87;;;;;;;12.03;39.84;101782.73;1781048;80;20912;-77
2021/10/27 13:42:11;;;;;;;12.20;6.87;;;;;;;11.92;40.31;101782.39;1783826;80;21346;-79
2021/10/27 13:44:38;;;;;;;13.60;7.30;;;;;;;11.79;40.66;101781.59;1782282;80;20845;-79
2021/10/27 13:47:28;;;;;;;10.55;6.72;;;;;;;11.68;40.84;101783.03;1783336;80;21370;-79
2021/10/27 13:57:42;;;;;;;16.32;9.60;;;;;;;11.56;41.20;101785.73;1780883;80;20971;-79
2021/10/27 13:58:02;;;;;;;19.42;12.25;;;;;;;11.23;42.05;101790.28;1783968;80;20907;-83
2021/10/27 14:06:02;;;;;;;21.48;11.85;;;;;;;10.89;42.85;101784.30;1783897;80;20892;-83
2021/10/27 14:13:55;;;;;;;26.25;13.32;;;;;;;10.53;43.73;101784.46;1783384;80;21533;-80
2021/10/27 15:22:15;;;;;;;209.30;92.47;;;;;;;7.67;51.73;101797.01;1783726;80;20920;-83
2021/10/27 15:32:45;;;;;;;147.95;70.85;;;;;;;7.37;52.64;101796.11;1783675;80;20861;-81
2021/10/27 15:51:07;;;;;;;136.92;65.30;;;;;;;7.07;53.56;101803.03;1775573;80;21646;-81
2021/10/27 15:53:37;;;;;;;133.87;59.15;;;;;;;7.01;53.66;101797.52;1705957;80;21382;-80